createdAt,value
2023-03-10T00:00:06.359Z,99316.00
2023-03-10T00:02:34.998Z,99327.75
2023-03-10T00:05:02.959Z,99335.13
2023-03-10T00:07:29.862Z,99335.81
2023-03-10T00:09:56.737Z,99341.03
2023-03-10T00:12:23.473Z,99332.81
2023-03-10T00:14:50.413Z,99340.88
2023-03-10T00:17:17.115Z,99350.63
2023-03-10T00:19:43.768Z,99337.19
2023-03-10T00:22:10.520Z,99352.94
2023-03-10T00:24:37.312Z,99361.81
2023-03-10T00:27:04.083Z,99370.38
2023-03-10T00:29:31.117Z,99366.34
2023-03-10T00:31:57.930Z,99384.69
2023-03-10T00:34:24.665Z,99398.28
2023-03-10T00:36:51.574Z,99403.66
2023-03-10T00:39:18.477Z,99414.41
2023-03-10T00:41:45.214Z,99416.09
2023-03-10T00:44:12.238Z,99428.53
2023-03-10T00:46:39.072Z,99431.88
2023-03-10T00:49:09.217Z,99442.31
2023-03-10T00:51:36.125Z,99449.38
2023-03-10T00:54:03.638Z,99462.50
2023-03-10T00:56:31.115Z,99477.63
2023-03-10T00:59:00.445Z,99481.03
2023-03-10T01:01:29.119Z,99506.34
2023-03-10T01:03:58.117Z,99500.28
2023-03-10T01:06:25.981Z,99514.19
2023-03-10T01:08:53.380Z,99525.50
2023-03-10T01:11:23.381Z,99532.69
2023-03-10T01:13:51.023Z,99534.84
2023-03-10T01:16:18.117Z,99544.44
2023-03-10T01:18:45.097Z,99576.38
2023-03-10T01:21:33.354Z,99601.56
2023-03-10T01:24:01.268Z,99631.28
2023-03-10T01:26:29.075Z,99655.31
2023-03-10T01:28:56.001Z,99670.72
2023-03-10T01:31:22.778Z,99691.22
2023-03-10T01:33:49.565Z,99688.53
2023-03-10T01:36:23.097Z,99701.00
2023-03-10T01:38:50.057Z,99698.47
2023-03-10T01:41:17.784Z,99716.41
2023-03-10T01:43:55.823Z,99723.63
2023-03-10T01:46:22.510Z,99735.69
2023-03-10T01:48:49.549Z,99738.81
2023-03-10T01:51:16.744Z,99733.59
2023-03-10T01:53:43.558Z,99740.13
2023-03-10T01:56:10.684Z,99739.28
2023-03-10T01:58:41.225Z,99755.41
2023-03-10T02:01:09.721Z,99745.78
2023-03-10T02:04:09.216Z,99740.84
2023-03-10T02:06:37.600Z,99738.31
2023-03-10T02:09:05.182Z,99744.97
2023-03-10T02:11:33.021Z,99753.34
2023-03-10T02:14:04.288Z,99755.59
2023-03-10T02:16:31.185Z,99756.78
2023-03-10T02:18:58.878Z,99756.22
2023-03-10T02:21:34.967Z,99752.97
2023-03-10T02:24:26.347Z,99755.94
2023-03-10T02:27:04.774Z,99760.78
2023-03-10T02:29:58.079Z,99755.53
2023-03-10T02:32:26.870Z,99748.22
2023-03-10T02:34:53.765Z,99758.25
2023-03-10T02:37:26.443Z,99764.22
2023-03-10T02:39:53.180Z,99779.47
2023-03-10T02:42:21.565Z,99786.13
2023-03-10T02:44:49.239Z,99794.31
2023-03-10T02:47:16.490Z,99800.69
2023-03-10T02:49:44.079Z,99826.09
2023-03-10T02:52:27.172Z,99829.91
2023-03-10T02:54:54.108Z,99834.84
2023-03-10T02:57:20.772Z,99837.00
2023-03-10T02:59:47.565Z,99867.63
2023-03-10T03:02:14.582Z,99886.84
2023-03-10T03:04:41.270Z,99870.75
2023-03-10T03:07:08.083Z,99849.28
2023-03-10T03:09:35.486Z,99876.13
2023-03-10T03:12:02.199Z,99890.38
2023-03-10T03:14:28.986Z,99914.66
2023-03-10T03:16:55.918Z,99920.16
2023-03-10T03:19:22.589Z,99921.28
2023-03-10T03:21:50.310Z,99927.50
2023-03-10T03:24:18.999Z,99928.38
2023-03-10T03:26:45.666Z,99946.13
2023-03-10T03:30:12.223Z,99946.13
2023-03-10T03:37:21.351Z,99963.50
2023-03-10T03:40:47.882Z,99974.38
2023-03-10T03:48:05.732Z,100004.88
2023-03-10T03:51:32.168Z,100023.78
2023-03-10T03:57:52.020Z,100041.28
2023-03-10T04:00:21.572Z,100040.31
2023-03-10T04:02:48.432Z,100046.78
2023-03-10T04:05:15.896Z,100066.44
2023-03-10T04:07:43.932Z,100071.53
2023-03-10T04:10:13.709Z,100080.56
2023-03-10T04:12:40.581Z,100087.78
2023-03-10T04:15:08.543Z,100096.66
2023-03-10T04:17:36.102Z,100106.41
2023-03-10T04:20:07.392Z,100114.47
2023-03-10T04:22:35.517Z,100125.34
2023-03-10T04:25:02.650Z,100137.31
2023-03-10T04:27:29.559Z,100148.88
2023-03-10T04:29:57.282Z,100152.53
2023-03-10T04:32:23.993Z,100167.66
2023-03-10T04:34:50.929Z,100162.16
2023-03-10T04:37:17.984Z,100172.06
2023-03-10T04:39:44.647Z,100180.09
2023-03-10T04:42:11.618Z,100185.47
2023-03-10T04:44:38.406Z,100205.22
2023-03-10T04:47:05.273Z,100215.13
2023-03-10T04:49:33.547Z,100231.06
2023-03-10T04:52:00.218Z,100243.88
2023-03-10T04:54:26.881Z,100253.31
2023-03-10T04:56:53.872Z,100254.19
2023-03-10T04:59:21.640Z,100260.53
2023-03-10T05:01:48.857Z,100266.84
2023-03-10T05:04:15.806Z,100274.06
2023-03-10T05:06:42.600Z,100268.69
2023-03-10T05:09:09.357Z,100273.78
2023-03-10T05:11:36.134Z,100288.91
2023-03-10T05:14:03.570Z,100283.28
2023-03-10T05:16:30.312Z,100296.69
2023-03-10T05:18:57.125Z,100295.72
2023-03-10T05:21:23.864Z,100307.44
2023-03-10T05:23:50.530Z,100311.81
2023-03-10T05:26:17.759Z,100327.94
2023-03-10T05:28:44.592Z,100333.28
2023-03-10T05:31:13.919Z,100342.03
2023-03-10T05:33:41.280Z,100356.19
2023-03-10T05:36:10.197Z,100360.47
2023-03-10T05:38:37.414Z,100370.31
2023-03-10T05:41:11.338Z,100367.50
2023-03-10T05:43:39.168Z,100356.66
2023-03-10T05:46:06.550Z,100368.97
2023-03-10T05:48:33.612Z,100368.81
2023-03-10T05:51:08.562Z,100380.56
2023-03-10T05:53:36.242Z,100388.63
2023-03-10T05:56:11.750Z,100395.53
2023-03-10T05:58:38.977Z,100402.47
2023-03-10T06:01:06.157Z,100414.66
2023-03-10T06:03:33.674Z,100410.28
2023-03-10T06:06:02.471Z,100403.22
2023-03-10T06:08:29.901Z,100408.59
2023-03-10T06:10:57.819Z,100402.34
2023-03-10T06:13:25.293Z,100407.50
2023-03-10T06:15:54.442Z,100408.59
2023-03-10T06:18:21.927Z,100410.28
2023-03-10T06:20:49.547Z,100421.88
2023-03-10T06:23:17.511Z,100442.47
2023-03-10T06:25:44.286Z,100440.53
2023-03-10T06:28:11.945Z,100450.66
2023-03-10T06:30:38.813Z,100447.13
2023-03-10T06:33:05.498Z,100445.28
2023-03-10T06:35:32.380Z,100470.81
2023-03-10T06:37:59.142Z,100475.19
2023-03-10T06:40:26.215Z,100482.63
2023-03-10T06:42:52.993Z,100488.50
2023-03-10T06:45:19.739Z,100492.41
2023-03-10T06:47:46.427Z,100499.97
2023-03-10T06:50:14.073Z,100516.72
2023-03-10T06:52:42.661Z,100530.72
2023-03-10T06:55:10.867Z,100542.66
2023-03-10T06:57:38.110Z,100545.34
2023-03-10T07:00:08.031Z,100563.28
2023-03-10T07:02:34.775Z,100559.00
2023-03-10T07:05:01.767Z,100548.66
2023-03-10T07:07:28.550Z,100544.50
2023-03-10T07:09:57.497Z,100542.91
2023-03-10T07:12:25.017Z,100536.84
2023-03-10T07:14:51.840Z,100540.59
2023-03-10T07:17:18.655Z,100551.31
2023-03-10T07:19:45.446Z,100545.22
2023-03-10T07:22:12.278Z,100555.09
2023-03-10T07:24:38.937Z,100546.22
2023-03-10T07:27:05.990Z,100545.47
2023-03-10T07:29:32.838Z,100550.09
2023-03-10T07:31:59.402Z,100551.06
2023-03-10T07:34:26.316Z,100559.09
2023-03-10T07:36:53.029Z,100555.47
2023-03-10T07:39:19.902Z,100574.22
2023-03-10T07:41:46.681Z,100587.63
2023-03-10T07:44:13.406Z,100605.41
2023-03-10T07:46:40.100Z,100620.28
2023-03-10T07:49:07.067Z,100619.94
2023-03-10T07:51:34.272Z,100636.50
2023-03-10T07:54:01.006Z,100636.19
2023-03-10T07:56:27.774Z,100659.81
2023-03-10T07:58:54.556Z,100655.94
2023-03-10T08:01:22.397Z,100662.03
2023-03-10T08:03:49.808Z,100673.25
2023-03-10T08:06:25.166Z,100668.41
2023-03-10T08:09:51.718Z,100670.59
2023-03-10T08:12:19.636Z,100677.44
2023-03-10T08:14:47.048Z,100685.97
2023-03-10T08:17:14.739Z,100695.50
2023-03-10T08:19:41.506Z,100711.34
2023-03-10T08:22:09.647Z,100713.78
2023-03-10T08:24:39.724Z,100714.31
2023-03-10T08:27:06.503Z,100726.13
2023-03-10T08:29:33.176Z,100728.81
2023-03-10T08:31:59.946Z,100730.28
2023-03-10T08:34:26.766Z,100741.03
2023-03-10T08:36:53.510Z,100748.88
2023-03-10T08:39:20.273Z,100761.94
2023-03-10T08:41:49.473Z,100759.25
2023-03-10T08:44:18.050Z,100760.47
2023-03-10T08:46:50.192Z,100766.06
2023-03-10T08:49:19.342Z,100765.31
2023-03-10T08:51:46.274Z,100775.09
2023-03-10T08:54:15.379Z,100775.09
2023-03-10T08:56:42.542Z,100773.25
2023-03-10T08:59:09.405Z,100774.84
2023-03-10T09:01:37.523Z,100784.50
2023-03-10T09:04:07.220Z,100783.66
2023-03-10T09:06:34.649Z,100796.09
2023-03-10T09:09:02.341Z,100802.81
2023-03-10T09:11:33.894Z,100808.44
2023-03-10T09:14:01.374Z,100802.84
2023-03-10T09:16:29.375Z,100807.59
2023-03-10T09:18:57.724Z,100818.31
2023-03-10T09:21:25.241Z,100825.53
2023-03-10T09:23:53.208Z,100823.44
2023-03-10T09:26:20.991Z,100817.06
2023-03-10T09:28:49.486Z,100817.88
2023-03-10T09:31:56.187Z,100828.03
2023-03-10T09:34:23.692Z,100827.03
2023-03-10T09:36:50.341Z,100827.50
2023-03-10T09:39:17.062Z,100834.81
2023-03-10T09:42:01.752Z,100837.72
2023-03-10T09:44:43.584Z,100849.44
2023-03-10T09:47:10.884Z,100849.50
2023-03-10T09:49:51.642Z,100842.47
2023-03-10T09:52:22.574Z,100853.59
2023-03-10T09:55:15.980Z,100851.72
2023-03-10T09:57:43.185Z,100831.25
2023-03-10T10:00:16.505Z,100831.06
2023-03-10T10:02:47.561Z,100833.09
2023-03-10T10:05:23.935Z,100834.13
2023-03-10T10:07:56.142Z,100831.88
2023-03-10T10:10:36.917Z,100833.47
2023-03-10T10:13:13.498Z,100830.94
2023-03-10T10:15:45.565Z,100832.81
2023-03-10T10:18:20.728Z,100838.97
2023-03-10T10:25:02.787Z,100842.13
2023-03-10T10:27:32.049Z,100834.34
2023-03-10T10:29:58.783Z,100847.16
2023-03-10T10:32:25.623Z,100842.47
2023-03-10T10:34:52.339Z,100849.56
2023-03-10T10:37:28.388Z,100861.06
2023-03-10T10:39:56.967Z,100876.88
2023-03-10T10:42:30.875Z,100873.59
2023-03-10T10:45:04.926Z,100872.50
2023-03-10T10:47:46.739Z,100866.97
2023-03-10T10:50:19.950Z,100883.63
2023-03-10T10:52:50.607Z,100896.97
2023-03-10T10:55:30.004Z,100906.22
2023-03-10T10:58:01.662Z,100915.78
2023-03-10T11:00:40.023Z,100909.84
2023-03-10T11:03:48.138Z,100911.09
2023-03-10T11:06:34.578Z,100916.50
2023-03-10T11:09:21.951Z,100914.78
2023-03-10T11:12:03.430Z,100911.78
2023-03-10T11:14:34.914Z,100921.63
2023-03-10T11:17:18.962Z,100928.75
2023-03-10T11:20:20.767Z,100942.50
2023-03-10T11:23:07.593Z,100940.50
2023-03-10T11:26:02.679Z,100943.03
2023-03-10T11:28:46.659Z,100943.00
2023-03-10T11:31:31.300Z,100940.00
2023-03-10T11:34:16.058Z,100937.56
2023-03-10T11:37:09.049Z,100939.03
2023-03-10T11:39:35.774Z,100954.25
2023-03-10T11:42:11.360Z,100943.50
2023-03-10T11:45:13.051Z,100950.22
2023-03-10T11:47:51.978Z,100955.22
2023-03-10T11:50:34.736Z,100955.69
2023-03-10T11:53:05.827Z,100952.28
2023-03-10T11:55:32.653Z,100955.34
2023-03-10T11:58:03.497Z,100952.72
2023-03-10T12:00:42.579Z,100945.53
2023-03-10T12:03:18.052Z,100951.06
2023-03-10T12:05:54.767Z,100960.63
2023-03-10T12:08:24.290Z,100944.72
2023-03-10T12:10:52.804Z,100950.06
2023-03-10T12:13:45.094Z,100941.78
2023-03-10T12:16:19.092Z,100932.75
2023-03-10T12:18:46.375Z,100931.38
2023-03-10T12:21:16.067Z,100920.13
2023-03-10T12:23:48.460Z,100914.19
2023-03-10T12:26:15.228Z,100899.41
2023-03-10T12:28:42.018Z,100897.31
2023-03-10T12:31:33.159Z,100889.38
2023-03-10T12:34:18.998Z,100898.22
2023-03-10T12:36:47.915Z,100897.88
2023-03-10T12:39:38.687Z,100895.47
2023-03-10T12:42:27.744Z,100896.44
2023-03-10T12:45:29.369Z,100890.72
2023-03-10T12:48:05.654Z,100886.72
2023-03-10T12:50:44.084Z,100893.47
2023-03-10T12:53:31.822Z,100904.69
2023-03-10T12:56:20.938Z,100912.88
2023-03-10T12:58:55.180Z,100908.78
2023-03-10T13:01:25.525Z,100899.72
2023-03-10T13:03:54.461Z,100906.25
2023-03-10T13:06:33.777Z,100920.25
2023-03-10T13:09:18.876Z,100911.06
2023-03-10T13:11:52.651Z,100913.19
2023-03-10T13:14:24.407Z,100920.59
2023-03-10T13:17:02.731Z,100921.53
2023-03-10T13:19:34.721Z,100904.06
2023-03-10T13:22:02.662Z,100907.38
2023-03-10T13:24:35.984Z,100913.44
2023-03-10T13:27:18.937Z,100903.41
2023-03-10T13:30:03.415Z,100903.44
2023-03-10T13:32:31.997Z,100905.00
2023-03-10T13:35:10.790Z,100915.06
2023-03-10T13:37:37.623Z,100914.91
2023-03-10T13:40:09.907Z,100919.16
2023-03-10T13:42:43.881Z,100904.88
2023-03-10T13:45:23.170Z,100899.63
2023-03-10T13:47:50.855Z,100893.16
2023-03-10T13:50:18.080Z,100899.50
2023-03-10T13:52:57.881Z,100909.91
2023-03-10T13:55:25.557Z,100889.28
2023-03-10T13:58:52.196Z,100888.44
2023-03-10T14:01:25.372Z,100874.47
2023-03-10T14:04:02.474Z,100827.81
2023-03-10T14:06:29.664Z,100872.97
2023-03-10T14:09:56.156Z,100861.63
2023-03-10T14:17:23.948Z,100826.38
2023-03-10T14:20:50.640Z,100825.66
2023-03-10T14:27:24.095Z,100855.25
2023-03-10T14:30:50.736Z,100848.94
2023-03-10T14:37:09.843Z,100829.28
2023-03-10T14:39:36.718Z,100837.03
2023-03-10T14:42:04.668Z,100835.97
2023-03-10T14:44:31.971Z,100839.53
2023-03-10T14:46:59.263Z,100847.69
2023-03-10T14:49:27.516Z,100845.88
2023-03-10T14:51:54.417Z,100840.56
2023-03-10T14:54:24.231Z,100837.25
2023-03-10T14:56:58.934Z,100842.63
2023-03-10T14:59:30.304Z,100855.50
2023-03-10T15:02:02.576Z,100851.69
2023-03-10T15:04:29.222Z,100851.28
2023-03-10T15:06:56.224Z,100854.34
2023-03-10T15:09:23.167Z,100848.19
2023-03-10T15:11:49.953Z,100851.53
2023-03-10T15:14:19.562Z,100840.34
2023-03-10T15:16:46.420Z,100829.53
2023-03-10T15:19:24.561Z,100798.25
2023-03-10T15:21:52.157Z,100816.53
2023-03-10T15:25:18.615Z,100817.38
2023-03-10T15:28:45.278Z,100825.66
2023-03-10T15:35:54.863Z,100805.00
2023-03-10T15:39:30.945Z,100807.88
2023-03-10T15:46:50.955Z,100814.31
2023-03-10T15:50:17.418Z,100812.53
2023-03-10T15:57:31.233Z,100820.59
2023-03-10T16:00:57.783Z,100779.72
2023-03-10T16:08:16.737Z,100803.91
2023-03-10T16:11:46.297Z,100786.25
2023-03-10T16:15:25.592Z,100814.94
2023-03-10T16:18:52.240Z,100800.50
2023-03-10T16:22:18.805Z,100804.13
2023-03-10T16:25:45.400Z,100812.75
2023-03-10T16:29:11.927Z,100811.44
2023-03-10T16:38:14.117Z,100812.78
2023-03-10T16:40:42.807Z,100814.00
2023-03-10T16:44:09.396Z,100814.25
2023-03-10T16:50:18.887Z,100803.72
2023-03-10T16:52:45.628Z,100811.75
2023-03-10T16:55:18.374Z,100813.59
2023-03-10T16:57:48.122Z,100821.44
2023-03-10T17:00:15.750Z,100803.09
2023-03-10T17:02:42.481Z,100803.78
2023-03-10T17:05:10.443Z,100803.75
2023-03-10T17:07:46.391Z,100800.00
2023-03-10T17:10:20.295Z,100805.41
2023-03-10T17:12:47.065Z,100803.38
2023-03-10T17:15:13.694Z,100815.56
2023-03-10T17:17:40.573Z,100809.09
2023-03-10T17:20:08.000Z,100816.44
2023-03-10T17:22:35.371Z,100828.22
2023-03-10T17:25:03.756Z,100841.44
2023-03-10T17:27:30.469Z,100839.13
2023-03-10T17:29:57.154Z,100842.78
2023-03-10T17:32:24.126Z,100837.31
2023-03-10T17:34:52.290Z,100846.34
2023-03-10T17:37:19.364Z,100851.97
2023-03-10T17:39:46.220Z,100855.69
2023-03-10T17:42:13.030Z,100852.22
2023-03-10T17:44:39.682Z,100863.75
2023-03-10T17:47:06.537Z,100865.84
2023-03-10T17:49:33.613Z,100873.63
2023-03-10T17:52:00.481Z,100866.13
2023-03-10T17:54:27.366Z,100857.44
2023-03-10T17:56:54.169Z,100865.94
2023-03-10T17:59:21.176Z,100858.41
2023-03-10T18:01:49.385Z,100848.50
2023-03-10T18:04:16.486Z,100842.81
2023-03-10T18:06:43.222Z,100851.13
2023-03-10T18:09:13.519Z,100846.31
2023-03-10T18:11:40.567Z,100864.81
2023-03-10T18:14:07.474Z,100865.56
2023-03-10T18:16:38.124Z,100876.97
2023-03-10T18:19:05.531Z,100875.41
2023-03-10T18:21:32.425Z,100885.81
2023-03-10T18:23:59.299Z,100885.81
2023-03-10T18:26:29.667Z,100885.44
2023-03-10T18:28:57.469Z,100894.53
2023-03-10T18:31:42.145Z,100894.41
2023-03-10T18:34:10.240Z,100902.38
2023-03-10T18:36:36.955Z,100901.78
2023-03-10T18:39:05.121Z,100897.25
2023-03-10T18:41:32.868Z,100896.84
2023-03-10T18:44:02.630Z,100896.56
2023-03-10T18:46:29.476Z,100906.53
2023-03-10T18:48:56.382Z,100907.81
2023-03-10T18:51:27.464Z,100912.78
2023-03-10T18:53:54.330Z,100913.94
2023-03-10T18:56:21.413Z,100917.50
2023-03-10T18:58:48.123Z,100921.63
2023-03-10T19:01:15.876Z,100920.75
2023-03-10T19:03:42.809Z,100926.16
2023-03-10T19:06:09.929Z,100926.16
2023-03-10T19:08:38.506Z,100922.03
2023-03-10T19:11:06.847Z,100933.28
2023-03-10T19:13:34.070Z,100928.59
2023-03-10T19:16:05.931Z,100926.44
2023-03-10T19:18:32.609Z,100928.16
2023-03-10T19:21:00.200Z,100928.16
2023-03-10T19:23:28.408Z,100929.00
2023-03-10T19:25:55.882Z,100925.31
2023-03-10T19:28:22.684Z,100919.91
2023-03-10T19:30:49.641Z,100917.03
2023-03-10T19:33:16.703Z,100925.59
2023-03-10T19:35:43.350Z,100921.31
2023-03-10T19:38:10.431Z,100920.63
2023-03-10T19:40:38.544Z,100915.50
2023-03-10T19:43:05.280Z,100906.13
2023-03-10T19:45:32.175Z,100903.81
2023-03-10T19:47:59.019Z,100908.50
2023-03-10T19:50:26.478Z,100905.94
2023-03-10T19:52:53.503Z,100898.97
2023-03-10T19:55:25.247Z,100895.56
2023-03-10T19:57:53.805Z,100886.03
2023-03-10T20:00:25.583Z,100884.31
2023-03-10T20:02:54.515Z,100886.31
2023-03-10T20:05:22.104Z,100885.44
2023-03-10T20:07:49.063Z,100896.69
2023-03-10T20:10:17.553Z,100889.00
2023-03-10T20:12:47.202Z,100898.25
2023-03-10T20:15:14.528Z,100896.81
2023-03-10T20:17:41.373Z,100896.34
2023-03-10T20:20:12.418Z,100902.88
2023-03-10T20:22:40.979Z,100890.69
2023-03-10T20:25:09.715Z,100895.94
2023-03-10T20:27:37.617Z,100892.94
2023-03-10T20:30:07.014Z,100890.78
2023-03-10T20:32:34.355Z,100892.91
2023-03-10T20:35:03.354Z,100895.34
2023-03-10T20:37:30.082Z,100896.63
2023-03-10T20:39:56.899Z,100902.75
2023-03-10T20:42:23.539Z,100896.59
2023-03-10T20:44:50.245Z,100898.28
2023-03-10T20:47:17.038Z,100894.00
2023-03-10T20:49:45.700Z,100891.72
2023-03-10T20:52:12.957Z,100892.56
2023-03-10T20:54:39.941Z,100896.25
2023-03-10T20:57:06.599Z,100896.09
2023-03-10T20:59:33.368Z,100896.78
2023-03-10T21:02:00.686Z,100893.75
2023-03-10T21:04:28.097Z,100889.63
2023-03-10T21:06:54.965Z,100886.31
2023-03-10T21:09:21.863Z,100887.06
2023-03-10T21:11:48.698Z,100890.59
2023-03-10T21:14:17.044Z,100884.66
2023-03-10T21:16:45.753Z,100883.91
2023-03-10T21:19:12.559Z,100884.91
2023-03-10T21:21:39.448Z,100887.34
2023-03-10T21:24:06.927Z,100890.47
2023-03-10T21:26:33.572Z,100887.91
2023-03-10T21:29:00.615Z,100886.75
2023-03-10T21:31:27.464Z,100892.69
2023-03-10T21:33:54.221Z,100890.00
2023-03-10T21:36:23.916Z,100901.34
2023-03-10T21:38:51.816Z,100890.41
2023-03-10T21:41:24.538Z,100891.44
2023-03-10T21:43:53.941Z,100889.72
2023-03-10T21:46:21.321Z,100885.16
2023-03-10T21:48:48.561Z,100891.94
2023-03-10T21:51:17.896Z,100893.75
2023-03-10T21:53:45.383Z,100891.34
2023-03-10T21:56:12.171Z,100891.56
2023-03-10T21:58:39.079Z,100895.00
2023-03-10T22:01:07.821Z,100889.88
2023-03-10T22:03:35.346Z,100884.03
2023-03-10T22:06:04.865Z,100894.09
2023-03-10T22:08:37.334Z,100889.97
2023-03-10T22:11:06.904Z,100886.66
2023-03-10T22:13:35.488Z,100882.25
2023-03-10T22:16:04.712Z,100879.69
2023-03-10T22:18:31.736Z,100873.47
2023-03-10T22:21:58.235Z,100874.72
2023-03-10T22:29:08.815Z,100874.19
2023-03-10T22:32:35.360Z,100861.94
2023-03-10T22:39:54.437Z,100873.00
2023-03-10T22:42:21.263Z,100871.75
2023-03-10T22:45:47.868Z,100866.63
2023-03-10T22:48:14.762Z,100863.06
2023-03-10T22:50:44.380Z,100859.53
2023-03-10T22:54:11.005Z,100865.63
2023-03-10T22:56:37.797Z,100863.94
2023-03-10T22:59:05.986Z,100869.47
2023-03-10T23:01:32.957Z,100864.16
2023-03-10T23:03:59.948Z,100859.78
2023-03-10T23:06:29.208Z,100850.53
2023-03-10T23:08:59.666Z,100851.84
2023-03-10T23:11:26.502Z,100862.38
2023-03-10T23:13:53.469Z,100866.91
2023-03-10T23:16:57.417Z,100869.09
2023-03-10T23:19:24.102Z,100866.63
2023-03-10T23:21:50.780Z,100865.25
2023-03-10T23:25:17.452Z,100865.69
2023-03-10T23:31:26.225Z,100855.72
2023-03-10T23:33:53.057Z,100858.41
2023-03-10T23:36:19.786Z,100853.25
2023-03-10T23:38:46.700Z,100854.25
2023-03-10T23:41:13.630Z,100856.81
2023-03-10T23:43:40.526Z,100850.31
2023-03-10T23:46:08.684Z,100857.88
2023-03-10T23:48:35.660Z,100858.22
2023-03-10T23:51:03.054Z,100859.38
2023-03-10T23:53:30.315Z,100857.31
2023-03-10T23:55:58.886Z,100845.97
2023-03-10T23:58:26.327Z,100846.59
